sensor_id;sensor_type;location;lat;lon;timestamp;P1;durP1;ratioP1;P2;durP2;ratioP2
14169;SDS011;63889;50.596;8.690;2023-07-31T00:01:59;5.18;;;1.50;;
14169;SDS011;63889;50.596;8.690;2023-07-31T00:04:24;6.13;;;1.10;;
14169;SDS011;63889;50.596;8.690;2023-07-31T00:06:50;3.38;;;1.33;;
14169;SDS011;63889;50.596;8.690;2023-07-31T00:09:15;2.95;;;1.40;;
14169;SDS011;63889;50.596;8.690;2023-07-31T00:11:41;6.30;;;1.50;;
14169;SDS011;63889;50.596;8.690;2023-07-31T00:14:07;3.08;;;1.65;;
14169;SDS011;63889;50.596;8.690;2023-07-31T00:16:32;6.50;;;1.38;;
14169;SDS011;63889;50.596;8.690;2023-07-31T00:18:58;3.90;;;1.42;;
14169;SDS011;63889;50.596;8.690;2023-07-31T00:21:23;2.70;;;1.13;;
14169;SDS011;63889;50.596;8.690;2023-07-31T00:23:49;6.75;;;2.08;;
14169;SDS011;63889;50.596;8.690;2023-07-31T00:26:14;3.67;;;1.30;;
14169;SDS011;63889;50.596;8.690;2023-07-31T00:28:40;3.88;;;1.27;;
14169;SDS011;63889;50.596;8.690;2023-07-31T00:31:05;5.97;;;1.70;;
14169;SDS011;63889;50.596;8.690;2023-07-31T00:33:31;4.75;;;1.55;;
14169;SDS011;63889;50.596;8.690;2023-07-31T00:35:57;7.00;;;1.40;;
14169;SDS011;63889;50.596;8.690;2023-07-31T00:38:22;5.47;;;1.42;;
14169;SDS011;63889;50.596;8.690;2023-07-31T00:40:48;3.80;;;1.10;;
14169;SDS011;63889;50.596;8.690;2023-07-31T00:43:13;3.42;;;1.10;;
14169;SDS011;63889;50.596;8.690;2023-07-31T00:45:39;3.65;;;1.27;;
14169;SDS011;63889;50.596;8.690;2023-07-31T00:48:04;3.45;;;1.38;;
14169;SDS011;63889;50.596;8.690;2023-07-31T00:50:33;4.40;;;1.60;;
14169;SDS011;63889;50.596;8.690;2023-07-31T00:53:00;4.85;;;1.33;;
14169;SDS011;63889;50.596;8.690;2023-07-31T00:55:25;6.63;;;1.80;;
14169;SDS011;63889;50.596;8.690;2023-07-31T00:57:51;4.25;;;1.40;;
14169;SDS011;63889;50.596;8.690;2023-07-31T01:00:20;4.70;;;1.40;;
14169;SDS011;63889;50.596;8.690;2023-07-31T01:02:46;6.45;;;2.08;;
14169;SDS011;63889;50.596;8.690;2023-07-31T01:05:13;4.55;;;1.65;;
14169;SDS011;63889;50.596;8.690;2023-07-31T01:07:47;3.65;;;1.50;;
14169;SDS011;63889;50.596;8.690;2023-07-31T01:10:21;3.05;;;1.40;;
14169;SDS011;63889;50.596;8.690;2023-07-31T01:12:51;3.00;;;1.20;;
14169;SDS011;63889;50.596;8.690;2023-07-31T01:15:18;7.35;;;1.63;;
14169;SDS011;63889;50.596;8.690;2023-07-31T01:17:44;3.35;;;1.45;;
14169;SDS011;63889;50.596;8.690;2023-07-31T01:28:33;3.58;;;1.30;;
14169;SDS011;63889;50.596;8.690;2023-07-31T01:31:07;5.75;;;1.80;;
14169;SDS011;63889;50.596;8.690;2023-07-31T01:33:38;4.88;;;1.50;;
14169;SDS011;63889;50.596;8.690;2023-07-31T01:36:04;3.33;;;1.50;;
14169;SDS011;63889;50.596;8.690;2023-07-31T01:38:30;4.65;;;1.77;;
14169;SDS011;63889;50.596;8.690;2023-07-31T01:40:56;4.05;;;1.08;;
14169;SDS011;63889;50.596;8.690;2023-07-31T01:43:21;8.45;;;1.20;;
14169;SDS011;63889;50.596;8.690;2023-07-31T01:45:48;4.35;;;1.25;;
14169;SDS011;63889;50.596;8.690;2023-07-31T01:48:13;2.88;;;1.52;;
14169;SDS011;63889;50.596;8.690;2023-07-31T01:50:39;5.50;;;1.27;;
14169;SDS011;63889;50.596;8.690;2023-07-31T01:53:04;4.82;;;1.95;;
14169;SDS011;63889;50.596;8.690;2023-07-31T01:55:30;4.45;;;1.45;;
14169;SDS011;63889;50.596;8.690;2023-07-31T01:57:55;3.47;;;1.60;;
14169;SDS011;63889;50.596;8.690;2023-07-31T02:00:21;7.13;;;1.20;;
14169;SDS011;63889;50.596;8.690;2023-07-31T02:02:46;3.15;;;1.60;;
14169;SDS011;63889;50.596;8.690;2023-07-31T02:05:12;7.60;;;1.80;;
14169;SDS011;63889;50.596;8.690;2023-07-31T02:07:38;4.03;;;1.65;;
14169;SDS011;63889;50.596;8.690;2023-07-31T02:10:03;5.72;;;1.67;;
14169;SDS011;63889;50.596;8.690;2023-07-31T02:12:29;5.13;;;1.60;;
14169;SDS011;63889;50.596;8.690;2023-07-31T02:14:58;5.05;;;1.42;;
14169;SDS011;63889;50.596;8.690;2023-07-31T02:17:24;8.05;;;1.65;;
14169;SDS011;63889;50.596;8.690;2023-07-31T02:19:49;4.35;;;1.70;;
14169;SDS011;63889;50.596;8.690;2023-07-31T02:22:15;5.05;;;1.30;;
14169;SDS011;63889;50.596;8.690;2023-07-31T02:24:41;3.75;;;1.38;;
14169;SDS011;63889;50.596;8.690;2023-07-31T02:27:06;3.80;;;1.55;;
14169;SDS011;63889;50.596;8.690;2023-07-31T02:29:32;3.53;;;1.60;;
14169;SDS011;63889;50.596;8.690;2023-07-31T02:31:57;3.55;;;1.90;;
14169;SDS011;63889;50.596;8.690;2023-07-31T02:34:23;4.47;;;1.30;;
14169;SDS011;63889;50.596;8.690;2023-07-31T02:36:48;3.85;;;1.73;;
14169;SDS011;63889;50.596;8.690;2023-07-31T02:39:14;6.03;;;1.67;;
14169;SDS011;63889;50.596;8.690;2023-07-31T02:41:39;5.47;;;1.73;;
14169;SDS011;63889;50.596;8.690;2023-07-31T02:44:05;4.13;;;1.45;;
14169;SDS011;63889;50.596;8.690;2023-07-31T02:46:30;3.78;;;1.65;;
14169;SDS011;63889;50.596;8.690;2023-07-31T02:48:56;5.80;;;1.70;;
14169;SDS011;63889;50.596;8.690;2023-07-31T02:51:22;6.57;;;1.45;;
14169;SDS011;63889;50.596;8.690;2023-07-31T02:53:47;4.18;;;1.75;;
14169;SDS011;63889;50.596;8.690;2023-07-31T02:56:13;6.50;;;1.95;;
14169;SDS011;63889;50.596;8.690;2023-07-31T02:58:39;3.80;;;1.33;;
14169;SDS011;63889;50.596;8.690;2023-07-31T03:01:04;4.25;;;1.30;;
14169;SDS011;63889;50.596;8.690;2023-07-31T03:03:30;4.78;;;2.17;;
14169;SDS011;63889;50.596;8.690;2023-07-31T03:05:56;6.50;;;1.70;;
14169;SDS011;63889;50.596;8.690;2023-07-31T03:08:21;5.80;;;1.80;;
14169;SDS011;63889;50.596;8.690;2023-07-31T03:10:47;4.35;;;1.90;;
14169;SDS011;63889;50.596;8.690;2023-07-31T03:13:12;3.70;;;1.38;;
14169;SDS011;63889;50.596;8.690;2023-07-31T03:15:38;5.78;;;1.67;;
14169;SDS011;63889;50.596;8.690;2023-07-31T03:18:06;6.30;;;1.67;;
14169;SDS011;63889;50.596;8.690;2023-07-31T03:20:32;12.45;;;2.30;;
14169;SDS011;63889;50.596;8.690;2023-07-31T03:22:57;3.47;;;1.40;;
14169;SDS011;63889;50.596;8.690;2023-07-31T03:25:23;4.88;;;1.60;;
14169;SDS011;63889;50.596;8.690;2023-07-31T03:27:48;3.38;;;1.50;;
14169;SDS011;63889;50.596;8.690;2023-07-31T03:30:14;3.55;;;1.55;;
14169;SDS011;63889;50.596;8.690;2023-07-31T03:32:39;3.22;;;1.77;;
14169;SDS011;63889;50.596;8.690;2023-07-31T03:35:05;5.55;;;1.95;;
14169;SDS011;63889;50.596;8.690;2023-07-31T03:37:31;5.75;;;1.90;;
14169;SDS011;63889;50.596;8.690;2023-07-31T03:39:56;3.00;;;1.40;;
14169;SDS011;63889;50.596;8.690;2023-07-31T03:42:22;3.67;;;1.75;;
14169;SDS011;63889;50.596;8.690;2023-07-31T03:44:47;6.93;;;1.77;;
14169;SDS011;63889;50.596;8.690;2023-07-31T03:47:13;4.88;;;1.48;;
14169;SDS011;63889;50.596;8.690;2023-07-31T03:49:38;3.53;;;1.60;;
14169;SDS011;63889;50.596;8.690;2023-07-31T03:52:04;4.95;;;1.98;;
14169;SDS011;63889;50.596;8.690;2023-07-31T03:54:30;8.13;;;1.75;;
14169;SDS011;63889;50.596;8.690;2023-07-31T03:56:55;2.55;;;1.42;;
14169;SDS011;63889;50.596;8.690;2023-07-31T03:59:21;6.07;;;2.05;;
14169;SDS011;63889;50.596;8.690;2023-07-31T04:01:46;4.20;;;1.50;;
14169;SDS011;63889;50.596;8.690;2023-07-31T04:04:12;3.92;;;1.60;;
14169;SDS011;63889;50.596;8.690;2023-07-31T04:06:37;4.43;;;1.88;;
14169;SDS011;63889;50.596;8.690;2023-07-31T04:09:03;4.82;;;1.65;;
14169;SDS011;63889;50.596;8.690;2023-07-31T04:11:28;4.95;;;1.73;;
14169;SDS011;63889;50.596;8.690;2023-07-31T04:13:54;6.68;;;2.05;;
14169;SDS011;63889;50.596;8.690;2023-07-31T04:16:19;4.82;;;1.65;;
14169;SDS011;63889;50.596;8.690;2023-07-31T04:18:45;3.40;;;1.92;;
14169;SDS011;63889;50.596;8.690;2023-07-31T04:21:11;4.60;;;2.35;;
14169;SDS011;63889;50.596;8.690;2023-07-31T04:23:36;4.22;;;1.80;;
14169;SDS011;63889;50.596;8.690;2023-07-31T04:26:02;3.40;;;1.75;;
14169;SDS011;63889;50.596;8.690;2023-07-31T04:28:27;7.20;;;2.13;;
14169;SDS011;63889;50.596;8.690;2023-07-31T04:30:53;7.97;;;1.65;;
14169;SDS011;63889;50.596;8.690;2023-07-31T04:33:19;7.78;;;2.00;;
14169;SDS011;63889;50.596;8.690;2023-07-31T04:35:49;3.08;;;1.60;;
14169;SDS011;63889;50.596;8.690;2023-07-31T04:38:17;4.80;;;1.60;;
14169;SDS011;63889;50.596;8.690;2023-07-31T04:40:43;2.38;;;1.98;;
14169;SDS011;63889;50.596;8.690;2023-07-31T04:43:09;6.18;;;1.83;;
14169;SDS011;63889;50.596;8.690;2023-07-31T04:45:34;3.72;;;1.73;;
14169;SDS011;63889;50.596;8.690;2023-07-31T04:48:00;5.18;;;1.92;;
14169;SDS011;63889;50.596;8.690;2023-07-31T04:50:25;3.05;;;1.70;;
14169;SDS011;63889;50.596;8.690;2023-07-31T04:52:51;5.25;;;1.80;;
14169;SDS011;63889;50.596;8.690;2023-07-31T04:55:17;4.28;;;1.58;;
14169;SDS011;63889;50.596;8.690;2023-07-31T04:57:42;2.50;;;1.55;;
14169;SDS011;63889;50.596;8.690;2023-07-31T05:00:08;3.47;;;1.60;;
14169;SDS011;63889;50.596;8.690;2023-07-31T05:02:34;2.88;;;1.73;;
14169;SDS011;63889;50.596;8.690;2023-07-31T05:04:59;4.40;;;1.95;;
14169;SDS011;63889;50.596;8.690;2023-07-31T05:07:25;4.70;;;1.63;;
14169;SDS011;63889;50.596;8.690;2023-07-31T05:09:50;4.57;;;1.95;;
14169;SDS011;63889;50.596;8.690;2023-07-31T05:12:16;10.27;;;1.70;;
14169;SDS011;63889;50.596;8.690;2023-07-31T05:14:41;6.97;;;2.00;;
14169;SDS011;63889;50.596;8.690;2023-07-31T05:17:07;5.95;;;1.65;;
14169;SDS011;63889;50.596;8.690;2023-07-31T05:19:32;5.45;;;1.85;;
14169;SDS011;63889;50.596;8.690;2023-07-31T05:21:58;5.32;;;2.15;;
14169;SDS011;63889;50.596;8.690;2023-07-31T05:24:24;3.92;;;1.85;;
14169;SDS011;63889;50.596;8.690;2023-07-31T05:26:49;5.10;;;1.92;;
14169;SDS011;63889;50.596;8.690;2023-07-31T05:29:15;4.13;;;1.70;;
14169;SDS011;63889;50.596;8.690;2023-07-31T05:31:41;2.83;;;1.70;;
14169;SDS011;63889;50.596;8.690;2023-07-31T05:34:07;5.50;;;1.75;;
14169;SDS011;63889;50.596;8.690;2023-07-31T05:36:32;4.88;;;1.85;;
14169;SDS011;63889;50.596;8.690;2023-07-31T05:38:58;4.93;;;2.33;;
14169;SDS011;63889;50.596;8.690;2023-07-31T05:41:23;3.75;;;1.73;;
14169;SDS011;63889;50.596;8.690;2023-07-31T05:43:49;4.18;;;1.80;;
14169;SDS011;63889;50.596;8.690;2023-07-31T05:46:16;3.33;;;1.38;;
14169;SDS011;63889;50.596;8.690;2023-07-31T05:48:41;5.38;;;1.58;;
14169;SDS011;63889;50.596;8.690;2023-07-31T05:51:07;3.72;;;1.15;;
14169;SDS011;63889;50.596;8.690;2023-07-31T05:53:32;6.30;;;1.45;;
14169;SDS011;63889;50.596;8.690;2023-07-31T05:55:58;5.22;;;2.25;;
14169;SDS011;63889;50.596;8.690;2023-07-31T05:58:24;4.00;;;1.67;;
14169;SDS011;63889;50.596;8.690;2023-07-31T06:00:49;2.55;;;1.42;;
14169;SDS011;63889;50.596;8.690;2023-07-31T06:03:15;3.22;;;1.73;;
14169;SDS011;63889;50.596;8.690;2023-07-31T06:05:40;6.85;;;1.55;;
14169;SDS011;63889;50.596;8.690;2023-07-31T06:08:06;4.65;;;1.75;;
14169;SDS011;63889;50.596;8.690;2023-07-31T06:10:31;3.97;;;1.80;;
14169;SDS011;63889;50.596;8.690;2023-07-31T06:12:57;2.83;;;1.40;;
14169;SDS011;63889;50.596;8.690;2023-07-31T06:15:22;3.42;;;1.73;;
14169;SDS011;63889;50.596;8.690;2023-07-31T06:17:48;4.53;;;1.90;;
14169;SDS011;63889;50.596;8.690;2023-07-31T06:20:13;4.10;;;1.80;;
14169;SDS011;63889;50.596;8.690;2023-07-31T06:22:39;3.78;;;2.00;;
14169;SDS011;63889;50.596;8.690;2023-07-31T06:25:04;9.23;;;1.85;;
14169;SDS011;63889;50.596;8.690;2023-07-31T06:27:30;6.00;;;1.75;;
14169;SDS011;63889;50.596;8.690;2023-07-31T06:29:56;3.17;;;1.90;;
14169;SDS011;63889;50.596;8.690;2023-07-31T06:32:22;5.07;;;1.80;;
14169;SDS011;63889;50.596;8.690;2023-07-31T06:34:48;5.35;;;1.95;;
14169;SDS011;63889;50.596;8.690;2023-07-31T06:37:13;5.15;;;1.77;;
14169;SDS011;63889;50.596;8.690;2023-07-31T06:39:39;2.83;;;1.70;;
14169;SDS011;63889;50.596;8.690;2023-07-31T06:42:04;7.82;;;1.95;;
14169;SDS011;63889;50.596;8.690;2023-07-31T06:44:30;3.85;;;1.98;;
14169;SDS011;63889;50.596;8.690;2023-07-31T06:46:56;7.10;;;2.05;;
14169;SDS011;63889;50.596;8.690;2023-07-31T06:49:21;9.15;;;2.00;;
14169;SDS011;63889;50.596;8.690;2023-07-31T06:51:47;5.70;;;1.73;;
14169;SDS011;63889;50.596;8.690;2023-07-31T06:54:12;5.47;;;1.73;;
14169;SDS011;63889;50.596;8.690;2023-07-31T06:56:38;6.43;;;1.90;;
14169;SDS011;63889;50.596;8.690;2023-07-31T06:59:03;4.65;;;1.90;;
14169;SDS011;63889;50.596;8.690;2023-07-31T07:01:29;3.03;;;2.10;;
14169;SDS011;63889;50.596;8.690;2023-07-31T07:03:54;7.38;;;2.20;;
14169;SDS011;63889;50.596;8.690;2023-07-31T07:06:21;7.90;;;2.05;;
14169;SDS011;63889;50.596;8.690;2023-07-31T07:08:47;3.67;;;1.77;;
14169;SDS011;63889;50.596;8.690;2023-07-31T07:11:13;7.68;;;2.13;;
14169;SDS011;63889;50.596;8.690;2023-07-31T07:13:38;6.28;;;2.30;;
14169;SDS011;63889;50.596;8.690;2023-07-31T07:16:04;4.05;;;2.25;;
14169;SDS011;63889;50.596;8.690;2023-07-31T07:18:30;9.95;;;2.50;;
14169;SDS011;63889;50.596;8.690;2023-07-31T07:20:56;5.00;;;1.65;;
14169;SDS011;63889;50.596;8.690;2023-07-31T07:23:23;3.63;;;1.92;;
14169;SDS011;63889;50.596;8.690;2023-07-31T07:25:48;5.28;;;1.67;;
14169;SDS011;63889;50.596;8.690;2023-07-31T07:28:14;3.85;;;1.65;;
14169;SDS011;63889;50.596;8.690;2023-07-31T07:30:40;4.32;;;1.73;;
14169;SDS011;63889;50.596;8.690;2023-07-31T07:33:06;7.70;;;2.13;;
14169;SDS011;63889;50.596;8.690;2023-07-31T07:35:35;9.65;;;2.75;;
14169;SDS011;63889;50.596;8.690;2023-07-31T07:38:02;6.82;;;2.13;;
14169;SDS011;63889;50.596;8.690;2023-07-31T07:40:28;5.38;;;2.13;;
14169;SDS011;63889;50.596;8.690;2023-07-31T07:42:53;5.75;;;2.13;;
14169;SDS011;63889;50.596;8.690;2023-07-31T07:45:19;5.07;;;2.15;;
14169;SDS011;63889;50.596;8.690;2023-07-31T07:47:44;9.05;;;2.58;;
14169;SDS011;63889;50.596;8.690;2023-07-31T07:50:10;3.38;;;1.80;;
14169;SDS011;63889;50.596;8.690;2023-07-31T07:52:35;3.10;;;1.88;;
14169;SDS011;63889;50.596;8.690;2023-07-31T07:55:01;5.43;;;2.50;;
14169;SDS011;63889;50.596;8.690;2023-07-31T07:57:28;16.13;;;2.42;;
14169;SDS011;63889;50.596;8.690;2023-07-31T07:59:54;6.18;;;2.30;;
14169;SDS011;63889;50.596;8.690;2023-07-31T08:02:20;6.10;;;2.42;;
14169;SDS011;63889;50.596;8.690;2023-07-31T08:04:46;6.63;;;2.55;;
14169;SDS011;63889;50.596;8.690;2023-07-31T08:07:12;7.22;;;2.20;;
14169;SDS011;63889;50.596;8.690;2023-07-31T08:09:38;13.18;;;1.95;;
14169;SDS011;63889;50.596;8.690;2023-07-31T08:12:03;7.03;;;2.30;;
14169;SDS011;63889;50.596;8.690;2023-07-31T08:14:29;4.13;;;2.25;;
14169;SDS011;63889;50.596;8.690;2023-07-31T08:16:55;5.03;;;2.40;;
14169;SDS011;63889;50.596;8.690;2023-07-31T08:19:21;4.30;;;2.28;;
14169;SDS011;63889;50.596;8.690;2023-07-31T08:21:46;8.70;;;2.30;;
14169;SDS011;63889;50.596;8.690;2023-07-31T08:24:12;5.97;;;2.20;;
14169;SDS011;63889;50.596;8.690;2023-07-31T08:26:37;6.35;;;2.10;;
14169;SDS011;63889;50.596;8.690;2023-07-31T08:29:03;2.67;;;2.33;;
14169;SDS011;63889;50.596;8.690;2023-07-31T08:31:29;7.22;;;2.13;;
14169;SDS011;63889;50.596;8.690;2023-07-31T08:33:55;4.57;;;1.80;;
14169;SDS011;63889;50.596;8.690;2023-07-31T08:36:21;9.20;;;2.45;;
14169;SDS011;63889;50.596;8.690;2023-07-31T08:38:46;9.43;;;1.90;;
14169;SDS011;63889;50.596;8.690;2023-07-31T08:41:12;4.85;;;1.88;;
14169;SDS011;63889;50.596;8.690;2023-07-31T08:43:38;7.00;;;2.13;;
14169;SDS011;63889;50.596;8.690;2023-07-31T08:46:04;7.28;;;2.70;;
14169;SDS011;63889;50.596;8.690;2023-07-31T08:48:30;4.78;;;2.40;;
14169;SDS011;63889;50.596;8.690;2023-07-31T08:50:57;4.60;;;2.40;;
14169;SDS011;63889;50.596;8.690;2023-07-31T08:53:23;5.57;;;2.45;;
14169;SDS011;63889;50.596;8.690;2023-07-31T08:55:49;5.63;;;2.28;;
14169;SDS011;63889;50.596;8.690;2023-07-31T08:58:17;6.35;;;2.63;;
14169;SDS011;63889;50.596;8.690;2023-07-31T09:00:43;9.57;;;2.47;;
14169;SDS011;63889;50.596;8.690;2023-07-31T09:03:15;8.50;;;2.63;;
14169;SDS011;63889;50.596;8.690;2023-07-31T09:05:43;6.93;;;2.25;;
14169;SDS011;63889;50.596;8.690;2023-07-31T09:08:11;12.95;;;2.80;;
14169;SDS011;63889;50.596;8.690;2023-07-31T09:10:45;5.57;;;2.50;;
14169;SDS011;63889;50.596;8.690;2023-07-31T09:13:11;7.28;;;2.38;;
14169;SDS011;63889;50.596;8.690;2023-07-31T09:15:37;6.68;;;2.50;;
14169;SDS011;63889;50.596;8.690;2023-07-31T09:18:04;6.50;;;2.25;;
14169;SDS011;63889;50.596;8.690;2023-07-31T09:20:30;8.32;;;2.42;;
14169;SDS011;63889;50.596;8.690;2023-07-31T09:23:09;6.65;;;2.42;;
14169;SDS011;63889;50.596;8.690;2023-07-31T09:25:36;10.68;;;3.78;;
14169;SDS011;63889;50.596;8.690;2023-07-31T09:28:06;7.20;;;2.40;;
14169;SDS011;63889;50.596;8.690;2023-07-31T09:30:49;7.77;;;2.60;;
14169;SDS011;63889;50.596;8.690;2023-07-31T09:33:17;10.95;;;2.90;;
14169;SDS011;63889;50.596;8.690;2023-07-31T09:39:05;6.22;;;2.88;;
14169;SDS011;63889;50.596;8.690;2023-07-31T09:41:43;6.63;;;2.60;;
14169;SDS011;63889;50.596;8.690;2023-07-31T09:44:10;8.93;;;2.60;;
14169;SDS011;63889;50.596;8.690;2023-07-31T09:46:36;8.32;;;2.72;;
14169;SDS011;63889;50.596;8.690;2023-07-31T09:49:13;7.30;;;2.83;;
14169;SDS011;63889;50.596;8.690;2023-07-31T09:51:40;7.30;;;2.47;;
14169;SDS011;63889;50.596;8.690;2023-07-31T09:54:10;6.60;;;2.95;;
14169;SDS011;63889;50.596;8.690;2023-07-31T09:56:44;7.13;;;2.70;;
14169;SDS011;63889;50.596;8.690;2023-07-31T09:59:14;14.15;;;2.95;;
14169;SDS011;63889;50.596;8.690;2023-07-31T10:01:42;7.55;;;2.83;;
14169;SDS011;63889;50.596;8.690;2023-07-31T10:04:09;10.00;;;3.17;;
14169;SDS011;63889;50.596;8.690;2023-07-31T10:06:36;6.75;;;2.72;;
14169;SDS011;63889;50.596;8.690;2023-07-31T10:09:05;9.25;;;2.53;;
14169;SDS011;63889;50.596;8.690;2023-07-31T10:11:33;7.45;;;2.88;;
14169;SDS011;63889;50.596;8.690;2023-07-31T10:14:03;6.57;;;2.28;;
14169;SDS011;63889;50.596;8.690;2023-07-31T10:16:30;10.30;;;2.60;;
14169;SDS011;63889;50.596;8.690;2023-07-31T10:18:56;7.57;;;2.47;;
14169;SDS011;63889;50.596;8.690;2023-07-31T10:21:23;5.72;;;2.10;;
14169;SDS011;63889;50.596;8.690;2023-07-31T10:23:49;10.50;;;3.08;;
14169;SDS011;63889;50.596;8.690;2023-07-31T10:26:16;5.68;;;2.15;;
14169;SDS011;63889;50.596;8.690;2023-07-31T10:28:44;6.75;;;2.50;;
14169;SDS011;63889;50.596;8.690;2023-07-31T10:31:11;5.45;;;2.60;;
14169;SDS011;63889;50.596;8.690;2023-07-31T10:33:38;6.28;;;2.10;;
14169;SDS011;63889;50.596;8.690;2023-07-31T10:36:17;10.45;;;3.08;;
14169;SDS011;63889;50.596;8.690;2023-07-31T10:38:44;7.78;;;2.13;;
14169;SDS011;63889;50.596;8.690;2023-07-31T10:41:10;5.72;;;2.75;;
14169;SDS011;63889;50.596;8.690;2023-07-31T10:43:36;8.93;;;2.90;;
14169;SDS011;63889;50.596;8.690;2023-07-31T10:46:09;6.03;;;2.50;;
14169;SDS011;63889;50.596;8.690;2023-07-31T10:48:38;6.07;;;2.28;;
14169;SDS011;63889;50.596;8.690;2023-07-31T10:51:06;3.97;;;1.80;;
14169;SDS011;63889;50.596;8.690;2023-07-31T10:53:34;9.57;;;2.83;;
14169;SDS011;63889;50.596;8.690;2023-07-31T10:56:00;8.55;;;2.50;;
14169;SDS011;63889;50.596;8.690;2023-07-31T10:58:34;5.50;;;2.20;;
14169;SDS011;63889;50.596;8.690;2023-07-31T11:01:02;6.13;;;2.53;;
14169;SDS011;63889;50.596;8.690;2023-07-31T11:04:09;4.30;;;1.98;;
14169;SDS011;63889;50.596;8.690;2023-07-31T11:06:21;7.68;;;3.28;;
14169;SDS011;63889;50.596;8.690;2023-07-31T11:08:48;9.80;;;2.70;;
14169;SDS011;63889;50.596;8.690;2023-07-31T11:11:15;7.97;;;2.55;;
14169;SDS011;63889;50.596;8.690;2023-07-31T11:16:15;6.15;;;2.70;;
14169;SDS011;63889;50.596;8.690;2023-07-31T11:18:42;7.22;;;2.28;;
14169;SDS011;63889;50.596;8.690;2023-07-31T11:21:13;6.45;;;2.35;;
14169;SDS011;63889;50.596;8.690;2023-07-31T11:23:40;4.65;;;2.42;;
14169;SDS011;63889;50.596;8.690;2023-07-31T11:26:06;6.00;;;2.85;;
14169;SDS011;63889;50.596;8.690;2023-07-31T11:28:33;4.45;;;2.35;;
14169;SDS011;63889;50.596;8.690;2023-07-31T11:30:59;6.22;;;3.03;;
14169;SDS011;63889;50.596;8.690;2023-07-31T11:33:26;6.88;;;2.85;;
14169;SDS011;63889;50.596;8.690;2023-07-31T11:35:51;6.20;;;2.38;;
14169;SDS011;63889;50.596;8.690;2023-07-31T11:38:27;6.22;;;2.53;;
14169;SDS011;63889;50.596;8.690;2023-07-31T11:40:57;4.82;;;2.30;;
14169;SDS011;63889;50.596;8.690;2023-07-31T11:43:24;6.35;;;2.50;;
14169;SDS011;63889;50.596;8.690;2023-07-31T11:45:51;6.18;;;2.38;;
14169;SDS011;63889;50.596;8.690;2023-07-31T11:48:23;5.57;;;2.58;;
14169;SDS011;63889;50.596;8.690;2023-07-31T11:50:51;6.65;;;2.28;;
14169;SDS011;63889;50.596;8.690;2023-07-31T11:53:38;6.07;;;2.75;;
14169;SDS011;63889;50.596;8.690;2023-07-31T11:56:10;6.85;;;2.63;;
14169;SDS011;63889;50.596;8.690;2023-07-31T11:58:38;6.97;;;2.33;;
14169;SDS011;63889;50.596;8.690;2023-07-31T12:01:05;7.35;;;3.13;;
14169;SDS011;63889;50.596;8.690;2023-07-31T12:03:32;7.60;;;3.28;;
14169;SDS011;63889;50.596;8.690;2023-07-31T12:05:58;8.30;;;2.83;;
14169;SDS011;63889;50.596;8.690;2023-07-31T12:08:25;4.88;;;1.92;;
14169;SDS011;63889;50.596;8.690;2023-07-31T12:10:51;5.53;;;2.90;;
14169;SDS011;63889;50.596;8.690;2023-07-31T12:13:21;5.72;;;2.40;;
14169;SDS011;63889;50.596;8.690;2023-07-31T12:15:55;5.45;;;2.00;;
14169;SDS011;63889;50.596;8.690;2023-07-31T12:18:22;6.50;;;2.67;;
14169;SDS011;63889;50.596;8.690;2023-07-31T12:20:49;4.07;;;2.10;;
14169;SDS011;63889;50.596;8.690;2023-07-31T12:23:20;6.50;;;2.05;;
14169;SDS011;63889;50.596;8.690;2023-07-31T12:26:03;5.30;;;2.22;;
14169;SDS011;63889;50.596;8.690;2023-07-31T12:33:42;5.35;;;2.42;;
14169;SDS011;63889;50.596;8.690;2023-07-31T12:36:12;5.85;;;2.85;;
14169;SDS011;63889;50.596;8.690;2023-07-31T12:38:39;5.35;;;2.22;;
14169;SDS011;63889;50.596;8.690;2023-07-31T12:41:05;8.10;;;2.83;;
14169;SDS011;63889;50.596;8.690;2023-07-31T12:43:34;3.80;;;2.00;;
14169;SDS011;63889;50.596;8.690;2023-07-31T12:46:01;5.97;;;2.40;;
14169;SDS011;63889;50.596;8.690;2023-07-31T12:48:26;5.57;;;2.42;;
14169;SDS011;63889;50.596;8.690;2023-07-31T12:50:52;4.63;;;2.08;;
14169;SDS011;63889;50.596;8.690;2023-07-31T12:53:18;5.03;;;2.25;;
14169;SDS011;63889;50.596;8.690;2023-07-31T12:55:43;3.90;;;2.17;;
14169;SDS011;63889;50.596;8.690;2023-07-31T12:58:09;4.47;;;2.20;;
14169;SDS011;63889;50.596;8.690;2023-07-31T13:00:34;3.47;;;1.75;;
14169;SDS011;63889;50.596;8.690;2023-07-31T13:03:00;5.20;;;2.05;;
14169;SDS011;63889;50.596;8.690;2023-07-31T13:05:26;5.88;;;2.53;;
14169;SDS011;63889;50.596;8.690;2023-07-31T13:07:53;6.78;;;2.08;;
14169;SDS011;63889;50.596;8.690;2023-07-31T13:10:18;3.70;;;1.90;;
14169;SDS011;63889;50.596;8.690;2023-07-31T13:12:44;3.45;;;2.13;;
14169;SDS011;63889;50.596;8.690;2023-07-31T13:15:10;5.65;;;2.72;;
14169;SDS011;63889;50.596;8.690;2023-07-31T13:17:35;5.05;;;1.98;;
14169;SDS011;63889;50.596;8.690;2023-07-31T13:20:02;8.82;;;2.10;;
14169;SDS011;63889;50.596;8.690;2023-07-31T13:22:28;3.78;;;2.15;;
14169;SDS011;63889;50.596;8.690;2023-07-31T13:24:54;4.07;;;1.85;;
14169;SDS011;63889;50.596;8.690;2023-07-31T13:27:19;8.45;;;2.55;;
14169;SDS011;63889;50.596;8.690;2023-07-31T13:29:46;5.47;;;2.15;;
14169;SDS011;63889;50.596;8.690;2023-07-31T13:32:13;3.58;;;2.35;;
14169;SDS011;63889;50.596;8.690;2023-07-31T13:34:39;4.30;;;2.10;;
14169;SDS011;63889;50.596;8.690;2023-07-31T13:37:04;5.07;;;2.10;;
14169;SDS011;63889;50.596;8.690;2023-07-31T13:39:32;7.00;;;2.30;;
14169;SDS011;63889;50.596;8.690;2023-07-31T13:41:59;4.88;;;1.88;;
14169;SDS011;63889;50.596;8.690;2023-07-31T13:44:24;6.63;;;2.28;;
14169;SDS011;63889;50.596;8.690;2023-07-31T13:46:51;3.38;;;2.05;;
14169;SDS011;63889;50.596;8.690;2023-07-31T13:49:16;5.18;;;2.03;;
14169;SDS011;63889;50.596;8.690;2023-07-31T13:51:42;5.15;;;1.98;;
14169;SDS011;63889;50.596;8.690;2023-07-31T13:54:07;5.32;;;2.03;;
14169;SDS011;63889;50.596;8.690;2023-07-31T13:56:33;6.32;;;1.70;;
14169;SDS011;63889;50.596;8.690;2023-07-31T13:58:58;3.17;;;1.80;;
14169;SDS011;63889;50.596;8.690;2023-07-31T14:01:25;6.65;;;1.90;;
14169;SDS011;63889;50.596;8.690;2023-07-31T14:03:51;5.47;;;1.77;;
14169;SDS011;63889;50.596;8.690;2023-07-31T14:06:17;5.68;;;2.03;;
14169;SDS011;63889;50.596;8.690;2023-07-31T14:08:42;3.90;;;2.42;;
14169;SDS011;63889;50.596;8.690;2023-07-31T14:11:08;4.70;;;1.98;;
14169;SDS011;63889;50.596;8.690;2023-07-31T14:13:33;6.15;;;2.20;;
14169;SDS011;63889;50.596;8.690;2023-07-31T14:15:59;3.72;;;1.67;;
14169;SDS011;63889;50.596;8.690;2023-07-31T14:18:24;4.90;;;1.63;;
14169;SDS011;63889;50.596;8.690;2023-07-31T14:20:50;7.68;;;2.30;;
14169;SDS011;63889;50.596;8.690;2023-07-31T14:23:16;6.57;;;1.75;;
14169;SDS011;63889;50.596;8.690;2023-07-31T14:25:41;4.82;;;2.22;;
14169;SDS011;63889;50.596;8.690;2023-07-31T14:28:07;7.03;;;2.08;;
14169;SDS011;63889;50.596;8.690;2023-07-31T14:30:32;10.15;;;2.55;;
14169;SDS011;63889;50.596;8.690;2023-07-31T14:32:58;5.38;;;2.22;;
14169;SDS011;63889;50.596;8.690;2023-07-31T14:35:25;4.78;;;2.50;;
14169;SDS011;63889;50.596;8.690;2023-07-31T14:37:51;5.57;;;2.67;;
14169;SDS011;63889;50.596;8.690;2023-07-31T14:40:16;4.80;;;2.47;;
14169;SDS011;63889;50.596;8.690;2023-07-31T14:42:42;5.18;;;2.42;;
14169;SDS011;63889;50.596;8.690;2023-07-31T14:45:08;5.60;;;2.85;;
14169;SDS011;63889;50.596;8.690;2023-07-31T14:47:35;3.72;;;2.13;;
14169;SDS011;63889;50.596;8.690;2023-07-31T14:50:01;6.25;;;2.80;;
14169;SDS011;63889;50.596;8.690;2023-07-31T14:52:27;4.65;;;2.20;;
14169;SDS011;63889;50.596;8.690;2023-07-31T14:54:52;4.93;;;2.33;;
14169;SDS011;63889;50.596;8.690;2023-07-31T14:57:18;4.05;;;1.95;;
14169;SDS011;63889;50.596;8.690;2023-07-31T14:59:44;5.13;;;2.55;;
14169;SDS011;63889;50.596;8.690;2023-07-31T15:02:10;6.00;;;2.33;;
14169;SDS011;63889;50.596;8.690;2023-07-31T15:04:36;4.03;;;2.63;;